VOE1NW LFLL-LEMD
Flight info
| Callsign | VOE1NW |
|---|---|
| Flight time | N/A |
| Altitude | 37000 |
| Route | REPSI DCT MINSO DCT AGN DCT TIVLI N869 ZAR Z245 TERSA |
| Aircraft | A319/M-SDFGIJ1RWY/LB1 |
Departure
| Time | 2026-05-05 17:21 |
|---|---|
| Airport | Lyon Saint-Exupéry Airport (LFLL) |
Arrival
| Time | N/A |
|---|---|
| Airport | Adolfo Suárez Madrid–Barajas Airport (LEMD) |
| Time | Latitude | Longitude | Altitude | Speed | Heading |
|---|---|---|---|---|---|
| 2026-05-05 17:02 | 45.71580 | 5.08322 | 801 ft | 0 kts | 195° |
| 2026-05-05 17:12 | 45.71581 | 5.08323 | 801 ft | 2 kts | 195° |
| 2026-05-05 17:12 | 45.71606 | 5.08332 | 801 ft | 4 kts | 195° |
| 2026-05-05 17:13 | 45.71632 | 5.08342 | 800 ft | 4 kts | 194° |
| 2026-05-05 17:13 | 45.71658 | 5.08350 | 800 ft | 4 kts | 181° |
| 2026-05-05 17:13 | 45.71679 | 5.08345 | 800 ft | 3 kts | 92° |
| 2026-05-05 17:13 | 45.71679 | 5.08341 | 800 ft | 0 kts | 85° |
| 2026-05-05 17:14 | 45.71679 | 5.08342 | 800 ft | 0 kts | 85° |
| 2026-05-05 17:15 | 45.71679 | 5.08343 | 800 ft | 1 kts | 85° |
| 2026-05-05 17:15 | 45.71680 | 5.08359 | 800 ft | 2 kts | 85° |
| 2026-05-05 17:15 | 45.71681 | 5.08377 | 800 ft | 1 kts | 85° |
| 2026-05-05 17:15 | 45.71683 | 5.08405 | 800 ft | 4 kts | 85° |
| 2026-05-05 17:16 | 45.71689 | 5.08449 | 801 ft | 4 kts | 62° |
| 2026-05-05 17:16 | 45.71730 | 5.08484 | 802 ft | 10 kts | 9° |
| 2026-05-05 17:16 | 45.71824 | 5.08478 | 802 ft | 17 kts | 355° |
| 2026-05-05 17:16 | 45.71971 | 5.08460 | 802 ft | 25 kts | 355° |
| 2026-05-05 17:17 | 45.72140 | 5.08440 | 802 ft | 22 kts | 355° |
| 2026-05-05 17:17 | 45.72287 | 5.08423 | 799 ft | 20 kts | 355° |
| 2026-05-05 17:17 | 45.72423 | 5.08407 | 797 ft | 20 kts | 355° |
| 2026-05-05 17:17 | 45.72562 | 5.08387 | 796 ft | 20 kts | 355° |
| 2026-05-05 17:18 | 45.72713 | 5.08370 | 791 ft | 23 kts | 356° |
| 2026-05-05 17:18 | 45.72873 | 5.08352 | 790 ft | 24 kts | 355° |
| 2026-05-05 17:18 | 45.73045 | 5.08333 | 787 ft | 26 kts | 356° |
| 2026-05-05 17:18 | 45.73232 | 5.08313 | 785 ft | 28 kts | 354° |
| 2026-05-05 17:19 | 45.73435 | 5.08285 | 780 ft | 31 kts | 355° |
| 2026-05-05 17:19 | 45.73651 | 5.08262 | 778 ft | 32 kts | 356° |
| 2026-05-05 17:19 | 45.73882 | 5.08233 | 776 ft | 34 kts | 353° |
| 2026-05-05 17:19 | 45.74119 | 5.08239 | 772 ft | 35 kts | 13° |
| 2026-05-05 17:20 | 45.74328 | 5.08334 | 771 ft | 30 kts | 42° |
| 2026-05-05 17:20 | 45.74341 | 5.08599 | 772 ft | 28 kts | 126° |
| 2026-05-05 17:20 | 45.74144 | 5.08669 | 773 ft | 43 kts | 176° |
| 2026-05-05 17:20 | 45.73592 | 5.08716 | 780 ft | 113 kts | 175° |
| 2026-05-05 17:21 | 45.72622 | 5.08822 | 808 ft | 163 kts | 176° |
| 2026-05-05 17:21 | 45.71507 | 5.08976 | 1471 ft | 157 kts | 175° |
| 2026-05-05 17:21 | 45.70432 | 5.09113 | 2116 ft | 157 kts | 176° |
| 2026-05-05 17:22 | 45.68064 | 5.09399 | 2998 ft | 192 kts | 176° |
| 2026-05-05 17:22 | 45.66644 | 5.09569 | 3337 ft | 217 kts | 176° |
| 2026-05-05 17:22 | 45.65095 | 5.09757 | 4042 ft | 227 kts | 176° |
| 2026-05-05 17:22 | 45.63509 | 5.09949 | 4945 ft | 230 kts | 177° |
| 2026-05-05 17:23 | 45.61893 | 5.10028 | 5695 ft | 241 kts | 188° |
| 2026-05-05 17:23 | 45.60274 | 5.09213 | 6326 ft | 254 kts | 213° |
| 2026-05-05 17:23 | 45.59001 | 5.07441 | 7122 ft | 261 kts | 236° |
| 2026-05-05 17:23 | 45.58349 | 5.05154 | 7942 ft | 267 kts | 255° |
| 2026-05-05 17:24 | 45.57925 | 5.02554 | 8844 ft | 271 kts | 255° |
| 2026-05-05 17:24 | 45.57506 | 4.99921 | 9723 ft | 274 kts | 256° |
| 2026-05-05 17:24 | 45.57061 | 4.97249 | 10507 ft | 278 kts | 253° |
| 2026-05-05 17:24 | 45.56515 | 4.94600 | 11341 ft | 279 kts | 250° |
| 2026-05-05 17:25 | 45.55972 | 4.91897 | 11874 ft | 296 kts | 259° |
| 2026-05-05 17:25 | 45.55833 | 4.89906 | 12033 ft | 312 kts | 263° |
| 2026-05-05 17:25 | 45.55585 | 4.85579 | 12285 ft | 343 kts | 263° |
| 2026-05-05 17:25 | 45.55396 | 4.82115 | 12692 ft | 356 kts | 263° |
| 2026-05-05 17:26 | 45.55202 | 4.78560 | 13331 ft | 361 kts | 263° |
| 2026-05-05 17:26 | 45.55007 | 4.74962 | 14004 ft | 365 kts | 263° |
| 2026-05-05 17:26 | 45.54809 | 4.71338 | 14648 ft | 368 kts | 263° |
| 2026-05-05 17:26 | 45.54607 | 4.67681 | 15282 ft | 371 kts | 263° |
| 2026-05-05 17:27 | 45.54398 | 4.63990 | 15909 ft | 375 kts | 263° |
| 2026-05-05 17:27 | 45.54189 | 4.60317 | 16533 ft | 378 kts | 262° |
| 2026-05-05 17:27 | 45.53970 | 4.56509 | 17167 ft | 382 kts | 262° |
| 2026-05-05 17:27 | 45.53752 | 4.52765 | 17781 ft | 385 kts | 262° |
| 2026-05-05 17:28 | 45.53526 | 4.48941 | 18379 ft | 389 kts | 262° |
| 2026-05-05 17:28 | 45.53299 | 4.45080 | 18915 ft | 392 kts | 262° |
| 2026-05-05 17:28 | 45.53067 | 4.41196 | 19441 ft | 395 kts | 262° |
| 2026-05-05 17:28 | 45.52832 | 4.37279 | 19968 ft | 398 kts | 262° |
| 2026-05-05 17:29 | 45.52591 | 4.33339 | 20476 ft | 400 kts | 261° |
| 2026-05-05 17:29 | 45.52086 | 4.29445 | 20975 ft | 399 kts | 251° |
| 2026-05-05 17:29 | 45.51115 | 4.25745 | 21447 ft | 399 kts | 242° |
| 2026-05-05 17:29 | 45.49712 | 4.22338 | 21921 ft | 399 kts | 233° |
| 2026-05-05 17:30 | 45.48113 | 4.19094 | 22393 ft | 402 kts | 233° |
| 2026-05-05 17:30 | 45.46503 | 4.15829 | 22856 ft | 404 kts | 233° |
| 2026-05-05 17:30 | 45.44883 | 4.12536 | 23303 ft | 407 kts | 233° |
| 2026-05-05 17:30 | 45.43254 | 4.09219 | 23699 ft | 410 kts | 233° |
| 2026-05-05 17:31 | 45.41617 | 4.05884 | 24098 ft | 412 kts | 233° |
| 2026-05-05 17:31 | 45.39971 | 4.02533 | 24502 ft | 414 kts | 233° |
| 2026-05-05 17:31 | 45.38319 | 3.99176 | 24904 ft | 415 kts | 233° |
| 2026-05-05 17:31 | 45.36657 | 3.95808 | 25300 ft | 417 kts | 233° |
| 2026-05-05 17:32 | 45.34988 | 3.92431 | 25698 ft | 418 kts | 233° |
| 2026-05-05 17:32 | 45.33311 | 3.89044 | 26065 ft | 420 kts | 233° |
| 2026-05-05 17:32 | 45.31624 | 3.85648 | 26430 ft | 421 kts | 233° |
| 2026-05-05 17:32 | 45.29932 | 3.82244 | 26787 ft | 423 kts | 233° |
| 2026-05-05 17:33 | 45.28232 | 3.78827 | 27148 ft | 424 kts | 233° |
| 2026-05-05 17:33 | 45.26524 | 3.75398 | 27488 ft | 426 kts | 233° |
| 2026-05-05 17:33 | 45.24810 | 3.71962 | 27829 ft | 427 kts | 233° |
| 2026-05-05 17:33 | 45.23088 | 3.68513 | 28162 ft | 429 kts | 233° |
| 2026-05-05 17:34 | 45.21358 | 3.65057 | 28493 ft | 431 kts | 233° |
| 2026-05-05 17:34 | 45.19628 | 3.61600 | 28920 ft | 429 kts | 233° |
| 2026-05-05 17:34 | 45.17904 | 3.58155 | 29428 ft | 427 kts | 232° |
| 2026-05-05 17:34 | 45.16188 | 3.54728 | 29911 ft | 425 kts | 233° |
| 2026-05-05 17:35 | 45.15610 | 3.53576 | 30055 ft | 425 kts | 233° |